Terminal Aerodrome Forecast
Issued by NWS

Home | Current Version | Previous Version | Text Only | Print | Product List | Glossary On
Versions: 1 2 3 4 5 6 7 8 9 10 11 12 13 14 15 16
183
FTUS46 KSEW 211757
TAFHQM
TAF
KHQM 211757Z 2118/2218 27004KT P6SM SCT015 BKN120
     FM220300 25006KT P6SM BKN025 OVC040
     FM221000 24006KT P6SM -RA SCT010 OVC018=

USA.gov is the U.S. government's official web portal to all federal, state and local government web resources and services.